Time;durP1;ratioP1;P1;durP2;ratioP2;P2;SDS_P1;SDS_P2;PMS_P1;PMS_P2;Temp;Humidity;BMP_temperature;BMP_pressure;BME280_temperature;BME280_humidity;BME280_pressure;Samples;Min_cycle;Max_cycle;Signal;HPM_P1;HPM_P2
2023/04/22 00:01:08;;;;;;;11.20;6.10;;;;;;;;;;5093940;28;20040;-67
2023/04/22 00:03:37;;;;;;;11.35;5.60;;;;;;;;;;5093731;28;20082;-67
2023/04/22 00:06:05;;;;;;;8.23;5.30;;;;;;;;;;5093880;28;20044;-67
2023/04/22 00:08:33;;;;;;;13.65;6.72;;;;;;;;;;5092513;28;20040;-67
2023/04/22 00:11:00;;;;;;;10.07;4.97;;;;;;;;;;5093847;28;20070;-68
2023/04/22 00:13:28;;;;;;;11.32;4.93;;;;;;;;;;5093727;28;20041;-68
2023/04/22 00:15:55;;;;;;;9.73;5.20;;;;;;;;;;5093667;28;20036;-68
2023/04/22 00:18:23;;;;;;;8.85;5.05;;;;;;;;;;5092543;28;20032;-67
2023/04/22 00:20:50;;;;;;;8.68;4.85;;;;;;;;;;5093909;28;20413;-67
2023/04/22 00:23:18;;;;;;;13.68;5.72;;;;;;;;;;5093395;28;20093;-67
2023/04/22 00:25:45;;;;;;;12.18;5.60;;;;;;;;;;5093522;28;20032;-67
2023/04/22 00:28:13;;;;;;;10.73;5.30;;;;;;;;;;5093721;28;20093;-67
2023/04/22 00:30:40;;;;;;;11.10;5.32;;;;;;;;;;5093234;28;20055;-67
2023/04/22 00:33:08;;;;;;;14.32;5.70;;;;;;;;;;5093581;28;20059;-67
2023/04/22 00:35:36;;;;;;;12.18;6.22;;;;;;;;;;5075132;28;20070;-67
2023/04/22 00:38:03;;;;;;;15.00;6.20;;;;;;;;;;5074961;28;20047;-67
2023/04/22 00:40:31;;;;;;;12.55;6.57;;;;;;;;;;5091899;28;20051;-67
2023/04/22 00:42:59;;;;;;;15.88;6.90;;;;;;;;;;5092974;28;20114;-67
2023/04/22 00:45:27;;;;;;;10.65;6.40;;;;;;;;;;5091795;28;20044;-67
2023/04/22 00:47:55;;;;;;;10.07;6.43;;;;;;;;;;5074813;28;20136;-67
2023/04/22 00:50:22;;;;;;;11.18;6.30;;;;;;;;;;5093242;28;20040;-67
2023/04/22 00:52:50;;;;;;;14.10;6.47;;;;;;;;;;5091583;28;20039;-67
2023/04/22 00:55:17;;;;;;;15.07;7.25;;;;;;;;;;5091582;28;20051;-67
2023/04/22 00:57:45;;;;;;;9.07;6.35;;;;;;;;;;5091388;28;20575;-67
2023/04/22 01:00:13;;;;;;;11.55;6.40;;;;;;;;;;5092716;28;20071;-67
2023/04/22 01:02:41;;;;;;;13.60;6.53;;;;;;;;;;5091451;28;20040;-67
2023/04/22 01:05:09;;;;;;;13.52;7.00;;;;;;;;;;5091410;28;20135;-67
2023/04/22 01:07:36;;;;;;;12.10;6.63;;;;;;;;;;5091557;28;20032;-67
2023/04/22 01:10:05;;;;;;;14.70;7.22;;;;;;;;;;5091502;28;20134;-67
2023/04/22 01:12:32;;;;;;;15.05;7.10;;;;;;;;;;5074553;28;20428;-67
2023/04/22 01:15:00;;;;;;;15.20;7.00;;;;;;;;;;5092609;28;20069;-67
2023/04/22 01:17:32;;;;;;;10.45;7.60;;;;;;;;;;5091393;28;20050;-67
2023/04/22 01:20:00;;;;;;;13.55;6.70;;;;;;;;;;5057854;28;20044;-67
2023/04/22 01:22:32;;;;;;;21.45;7.07;;;;;;;;;;5092612;28;20050;-67
2023/04/22 01:25:00;;;;;;;13.77;6.93;;;;;;;;;;5074896;28;20040;-67
2023/04/22 01:27:27;;;;;;;11.23;6.95;;;;;;;;;;5092854;28;20366;-67
2023/04/22 01:29:55;;;;;;;10.73;7.20;;;;;;;;;;5092531;28;20398;-67
2023/04/22 01:32:22;;;;;;;17.33;8.07;;;;;;;;;;5091649;28;20077;-66
2023/04/22 01:34:51;;;;;;;15.32;7.50;;;;;;;;;;5092510;28;20047;-67
2023/04/22 01:37:19;;;;;;;12.32;7.40;;;;;;;;;;5091543;28;20059;-67
2023/04/22 01:39:47;;;;;;;15.27;7.60;;;;;;;;;;5091314;28;20044;-66
2023/04/22 01:42:14;;;;;;;13.88;7.20;;;;;;;;;;5092334;28;20040;-66
2023/04/22 01:44:42;;;;;;;11.00;7.47;;;;;;;;;;5091185;28;20044;-66
2023/04/22 01:47:09;;;;;;;17.98;7.45;;;;;;;;;;5091007;28;20043;-67
2023/04/22 01:49:37;;;;;;;17.08;8.20;;;;;;;;;;5074377;28;20052;-66
2023/04/22 01:52:05;;;;;;;12.25;8.18;;;;;;;;;;5074242;28;20127;-66
2023/04/22 01:54:32;;;;;;;14.13;7.70;;;;;;;;;;5090895;28;20041;-66
2023/04/22 01:57:00;;;;;;;16.17;8.10;;;;;;;;;;5090694;28;20052;-67
2023/04/22 01:59:28;;;;;;;12.50;7.40;;;;;;;;;;5073893;28;20048;-67
2023/04/22 02:01:55;;;;;;;14.10;7.75;;;;;;;;;;5092108;28;20085;-67
2023/04/22 02:04:23;;;;;;;14.02;8.15;;;;;;;;;;5073984;28;20517;-67
2023/04/22 02:06:51;;;;;;;16.65;8.20;;;;;;;;;;5091044;28;20044;-67
2023/04/22 02:09:18;;;;;;;12.27;7.93;;;;;;;;;;5090956;28;20040;-66
2023/04/22 02:11:46;;;;;;;12.00;7.65;;;;;;;;;;5090955;28;20052;-65
2023/04/22 02:14:13;;;;;;;12.25;8.48;;;;;;;;;;5092153;28;20040;-66
2023/04/22 02:16:41;;;;;;;17.48;8.73;;;;;;;;;;5090941;28;20040;-65
2023/04/22 02:19:09;;;;;;;13.68;8.35;;;;;;;;;;5092076;28;20070;-67
2023/04/22 02:21:36;;;;;;;17.38;8.98;;;;;;;;;;5090724;28;20141;-65
2023/04/22 02:24:04;;;;;;;13.60;7.97;;;;;;;;;;5092329;28;20391;-67
2023/04/22 02:26:32;;;;;;;14.40;7.82;;;;;;;;;;5090804;28;20040;-66
2023/04/22 02:29:00;;;;;;;10.73;7.97;;;;;;;;;;5090825;28;20071;-66
2023/04/22 02:31:28;;;;;;;15.77;7.93;;;;;;;;;;5094249;28;20138;-66
2023/04/22 02:33:56;;;;;;;12.70;7.55;;;;;;;;;;5094691;28;20124;-66
2023/04/22 02:36:24;;;;;;;14.43;7.82;;;;;;;;;;5094300;28;20047;-66
2023/04/22 02:38:51;;;;;;;10.88;7.13;;;;;;;;;;5094231;28;20490;-66
2023/04/22 02:41:19;;;;;;;13.50;7.00;;;;;;;;;;5094613;28;20101;-66
2023/04/22 02:43:47;;;;;;;9.30;6.25;;;;;;;;;;5095313;28;20044;-66
2023/04/22 02:46:15;;;;;;;12.02;7.05;;;;;;;;;;5094300;28;20044;-66
2023/04/22 02:48:43;;;;;;;8.27;6.50;;;;;;;;;;5077147;28;20044;-66
2023/04/22 02:51:10;;;;;;;10.32;6.47;;;;;;;;;;5094080;28;20075;-66
2023/04/22 02:53:38;;;;;;;14.02;6.53;;;;;;;;;;5093721;28;20047;-66
2023/04/22 02:56:05;;;;;;;10.50;6.32;;;;;;;;;;5093949;28;20044;-66
2023/04/22 02:58:33;;;;;;;11.43;6.97;;;;;;;;;;5093696;28;20098;-66
2023/04/22 03:01:00;;;;;;;10.85;6.88;;;;;;;;;;5094053;28;20611;-66
2023/04/22 03:03:28;;;;;;;13.02;6.50;;;;;;;;;;5093660;28;20032;-66
2023/04/22 03:05:56;;;;;;;14.13;6.93;;;;;;;;;;5077151;28;20402;-66
2023/04/22 03:08:23;;;;;;;11.80;6.72;;;;;;;;;;5093611;28;20040;-66
2023/04/22 03:10:51;;;;;;;15.80;6.97;;;;;;;;;;5093833;28;20080;-66
2023/04/22 03:13:18;;;;;;;13.15;7.13;;;;;;;;;;5093472;28;20068;-66
2023/04/22 03:15:46;;;;;;;10.55;6.82;;;;;;;;;;5093544;28;20101;-66
2023/04/22 03:18:13;;;;;;;14.65;7.35;;;;;;;;;;5094776;28;20124;-66
2023/04/22 03:20:42;;;;;;;9.25;6.75;;;;;;;;;;5093585;28;20055;-66
2023/04/22 03:23:10;;;;;;;11.68;6.90;;;;;;;;;;5093375;28;20061;-66
2023/04/22 03:25:37;;;;;;;12.98;6.80;;;;;;;;;;5076567;28;20044;-66
2023/04/22 03:28:05;;;;;;;10.55;7.07;;;;;;;;;;5093214;28;20044;-66
2023/04/22 03:30:33;;;;;;;14.60;8.35;;;;;;;;;;5092987;28;20055;-66
2023/04/22 03:33:01;;;;;;;14.05;8.05;;;;;;;;;;5093185;28;20553;-66
2023/04/22 03:35:53;;;;;;;17.35;8.52;;;;;;;;;;5094004;28;20556;-66
2023/04/22 03:38:21;;;;;;;15.35;7.25;;;;;;;;;;5076354;28;20044;-66
2023/04/22 03:40:50;;;;;;;13.68;7.75;;;;;;;;;;5092837;28;20040;-66
2023/04/22 03:43:28;;;;;;;11.82;7.97;;;;;;;;;;5076040;28;20398;-67
2023/04/22 03:46:02;;;;;;;12.95;7.72;;;;;;;;;;5076126;28;20075;-66
2023/04/22 03:48:34;;;;;;;14.60;7.80;;;;;;;;;;5092818;28;20139;-67
2023/04/22 03:51:07;;;;;;;16.02;8.38;;;;;;;;;;5092831;28;20403;-67
2023/04/22 03:53:36;;;;;;;19.25;8.55;;;;;;;;;;5092663;28;20044;-67
2023/04/22 03:56:05;;;;;;;18.63;8.23;;;;;;;;;;5092694;28;20385;-67
2023/04/22 03:58:36;;;;;;;14.63;8.63;;;;;;;;;;5092527;28;20529;-67
2023/04/22 04:01:06;;;;;;;19.00;8.80;;;;;;;;;;5092678;28;20044;-67
2023/04/22 04:03:34;;;;;;;17.88;8.25;;;;;;;;;;5092559;28;20044;-67
2023/04/22 04:06:03;;;;;;;17.48;8.60;;;;;;;;;;5092516;28;20056;-67
2023/04/22 04:08:32;;;;;;;15.23;8.07;;;;;;;;;;5076091;28;20058;-66
2023/04/22 04:11:00;;;;;;;12.85;7.75;;;;;;;;;;5092502;28;20390;-66
2023/04/22 04:13:31;;;;;;;14.18;8.23;;;;;;;;;;5075472;28;20468;-67
2023/04/22 04:16:17;;;;;;;18.38;9.40;;;;;;;;;;5093683;28;20404;-67
2023/04/22 04:18:50;;;;;;;19.08;9.50;;;;;;;;;;5092385;28;20044;-67
2023/04/22 04:21:21;;;;;;;18.30;8.18;;;;;;;;;;5075423;28;20105;-67
2023/04/22 04:23:51;;;;;;;13.88;8.98;;;;;;;;;;5075305;28;20135;-67
2023/04/22 04:26:26;;;;;;;12.15;8.68;;;;;;;;;;5092275;28;20519;-67
2023/04/22 04:29:00;;;;;;;15.63;8.15;;;;;;;;;;5092164;28;20440;-67
2023/04/22 04:31:28;;;;;;;15.55;7.78;;;;;;;;;;5092061;28;20051;-67
2023/04/22 04:33:58;;;;;;;18.27;8.80;;;;;;;;;;5091531;28;20042;-67
2023/04/22 04:36:28;;;;;;;13.15;8.65;;;;;;;;;;5089801;28;20032;-67
2023/04/22 04:39:05;;;;;;;14.70;9.52;;;;;;;;;;5075129;28;20036;-68
2023/04/22 04:41:33;;;;;;;16.98;9.73;;;;;;;;;;5091758;28;20044;-67
2023/04/22 04:44:02;;;;;;;16.65;9.65;;;;;;;;;;5091859;28;20044;-67
2023/04/22 04:46:36;;;;;;;18.35;10.25;;;;;;;;;;5091757;28;20043;-67
2023/04/22 04:49:08;;;;;;;12.93;10.00;;;;;;;;;;5074863;28;20048;-67
2023/04/22 04:51:45;;;;;;;17.13;9.93;;;;;;;;;;5091690;28;20090;-67
2023/04/22 04:54:12;;;;;;;13.70;10.02;;;;;;;;;;5090403;28;20044;-67
2023/04/22 04:56:41;;;;;;;13.95;9.65;;;;;;;;;;5070699;28;20497;-67
2023/04/22 04:59:09;;;;;;;17.45;9.60;;;;;;;;;;5063357;28;20089;-68
2023/04/22 05:01:38;;;;;;;14.95;10.00;;;;;;;;;;5066453;28;20042;-67
2023/04/22 05:04:08;;;;;;;15.50;10.10;;;;;;;;;;5074142;28;20383;-67
2023/04/22 05:06:39;;;;;;;16.20;10.50;;;;;;;;;;5074544;28;20044;-67
2023/04/22 05:09:07;;;;;;;18.63;10.88;;;;;;;;;;5080612;28;20410;-66
2023/04/22 05:11:35;;;;;;;17.48;11.40;;;;;;;;;;5071255;28;20051;-68
2023/04/22 05:14:10;;;;;;;13.95;10.70;;;;;;;;;;5074225;28;20492;-68
2023/04/22 05:16:40;;;;;;;15.98;10.07;;;;;;;;;;5057978;28;20497;-67
2023/04/22 05:19:09;;;;;;;15.07;9.88;;;;;;;;;;5091783;28;20059;-69
2023/04/22 05:21:37;;;;;;;14.15;10.13;;;;;;;;;;5091341;28;20051;-65
2023/04/22 05:24:05;;;;;;;14.10;10.00;;;;;;;;;;5072297;28;20090;-66
2023/04/22 05:26:33;;;;;;;18.95;10.25;;;;;;;;;;5090534;28;20138;-66
2023/04/22 05:29:05;;;;;;;15.23;10.60;;;;;;;;;;5090930;28;20131;-66
2023/04/22 05:31:33;;;;;;;17.42;10.27;;;;;;;;;;5074202;28;20044;-66
2023/04/22 05:34:01;;;;;;;13.52;10.32;;;;;;;;;;5091412;28;20043;-66
2023/04/22 05:36:29;;;;;;;16.15;9.93;;;;;;;;;;5091124;28;20379;-66
2023/04/22 05:38:58;;;;;;;15.73;9.50;;;;;;;;;;5090704;28;20655;-66
2023/04/22 05:41:27;;;;;;;17.13;10.48;;;;;;;;;;5090222;28;20083;-66
2023/04/22 05:43:56;;;;;;;17.75;10.98;;;;;;;;;;5090830;28;20150;-66
2023/04/22 05:46:24;;;;;;;14.73;9.80;;;;;;;;;;5071058;28;20056;-65
2023/04/22 05:48:53;;;;;;;17.38;9.48;;;;;;;;;;5070790;28;20139;-66
2023/04/22 05:51:39;;;;;;;15.75;10.88;;;;;;;;;;5075330;28;20074;-66
2023/04/22 05:54:11;;;;;;;20.48;11.30;;;;;;;;;;5073798;28;20091;-66
2023/04/22 05:56:40;;;;;;;14.85;9.95;;;;;;;;;;5069306;28;20040;-69
2023/04/22 05:59:07;;;;;;;19.63;10.95;;;;;;;;;;5087452;28;20045;-68
2023/04/22 06:01:36;;;;;;;17.10;10.38;;;;;;;;;;5077363;28;20036;-68
2023/04/22 06:04:08;;;;;;;14.98;9.90;;;;;;;;;;5079002;28;20061;-68
2023/04/22 06:06:37;;;;;;;16.88;8.90;;;;;;;;;;5081418;28;20049;-68
2023/04/22 06:09:06;;;;;;;15.60;10.15;;;;;;;;;;5074266;28;20086;-69
2023/04/22 06:11:33;;;;;;;14.15;9.57;;;;;;;;;;5076128;28;20383;-68
2023/04/22 06:14:01;;;;;;;17.67;10.82;;;;;;;;;;5074659;28;20041;-68
2023/04/22 06:16:29;;;;;;;20.27;13.60;;;;;;;;;;5091304;28;20080;-68
2023/04/22 06:18:57;;;;;;;15.18;11.60;;;;;;;;;;5091167;28;20040;-68
2023/04/22 06:21:25;;;;;;;15.77;9.65;;;;;;;;;;5057621;28;20048;-68
2023/04/22 06:23:53;;;;;;;11.80;9.68;;;;;;;;;;5074356;28;20390;-68
2023/04/22 06:26:21;;;;;;;12.38;9.52;;;;;;;;;;5074420;28;20123;-68
2023/04/22 06:28:48;;;;;;;13.52;9.25;;;;;;;;;;5074007;28;20041;-67
2023/04/22 06:31:19;;;;;;;18.65;10.00;;;;;;;;;;5074437;28;20132;-67
2023/04/22 06:33:48;;;;;;;12.88;8.85;;;;;;;;;;5057159;28;20123;-68
2023/04/22 06:36:15;;;;;;;13.52;9.10;;;;;;;;;;5075143;28;20397;-66
2023/04/22 06:38:47;;;;;;;11.90;8.95;;;;;;;;;;5090952;28;20079;-66
2023/04/22 06:41:28;;;;;;;12.00;8.98;;;;;;;;;;5090972;28;20052;-67
2023/04/22 06:44:00;;;;;;;13.73;9.27;;;;;;;;;;5093986;28;20513;-68
2023/04/22 06:46:45;;;;;;;11.93;9.10;;;;;;;;;;5095865;28;20577;-67
2023/04/22 06:49:32;;;;;;;12.43;9.50;;;;;;;;;;5095423;28;20055;-67
2023/04/22 06:52:14;;;;;;;13.20;9.18;;;;;;;;;;5077424;28;20044;-66
2023/04/22 06:54:42;;;;;;;12.43;9.80;;;;;;;;;;5093761;28;20051;-81
2023/04/22 06:57:09;;;;;;;13.93;9.23;;;;;;;;;;5090565;28;20051;-66
2023/04/22 06:59:37;;;;;;;15.18;9.20;;;;;;;;;;5090876;28;20047;-66
2023/04/22 07:02:06;;;;;;;17.02;9.13;;;;;;;;;;5057150;28;20090;-65
2023/04/22 07:04:37;;;;;;;11.68;8.38;;;;;;;;;;5073468;28;20051;-66
2023/04/22 07:07:05;;;;;;;14.02;7.85;;;;;;;;;;5073427;28;20523;-66
2023/04/22 07:09:34;;;;;;;10.85;7.43;;;;;;;;;;5073492;28;20455;-68
2023/04/22 07:12:03;;;;;;;12.95;8.10;;;;;;;;;;5073671;28;20159;-66
2023/04/22 07:14:31;;;;;;;12.48;7.55;;;;;;;;;;5054251;28;20048;-67
2023/04/22 07:16:58;;;;;;;14.02;8.10;;;;;;;;;;5052731;28;20099;-67
2023/04/22 07:19:26;;;;;;;9.43;7.13;;;;;;;;;;5064144;28;20040;-67
2023/04/22 07:21:53;;;;;;;11.18;7.07;;;;;;;;;;5064717;28;20045;-67
2023/04/22 07:24:22;;;;;;;8.45;6.15;;;;;;;;;;5056777;28;20051;-67
2023/04/22 07:26:49;;;;;;;10.93;6.57;;;;;;;;;;5074648;28;20086;-68
2023/04/22 07:29:17;;;;;;;13.32;6.60;;;;;;;;;;5074029;28;20037;-68
2023/04/22 07:31:45;;;;;;;11.07;7.55;;;;;;;;;;5054416;28;20055;-67
2023/04/22 07:34:13;;;;;;;10.35;6.22;;;;;;;;;;5066498;28;20044;-67
2023/04/22 07:36:40;;;;;;;17.45;12.13;;;;;;;;;;5073754;28;20528;-68
2023/04/22 07:39:08;;;;;;;13.80;9.23;;;;;;;;;;5072812;28;20425;-68
2023/04/22 07:41:36;;;;;;;13.93;6.82;;;;;;;;;;5073699;28;20045;-67
2023/04/22 07:44:03;;;;;;;12.13;6.05;;;;;;;;;;5071576;28;20039;-68
2023/04/22 07:46:31;;;;;;;10.18;6.15;;;;;;;;;;5063027;28;20052;-67
2023/04/22 07:48:58;;;;;;;9.05;5.82;;;;;;;;;;5061036;28;20041;-67
2023/04/22 07:51:26;;;;;;;10.38;5.22;;;;;;;;;;5073679;28;20567;-66
2023/04/22 07:53:53;;;;;;;10.55;5.63;;;;;;;;;;5073351;28;20139;-67
2023/04/22 07:56:21;;;;;;;14.02;5.90;;;;;;;;;;5072255;28;20045;-67
2023/04/22 07:58:49;;;;;;;12.15;5.78;;;;;;;;;;5092506;28;20486;-68
2023/04/22 08:01:16;;;;;;;9.18;5.20;;;;;;;;;;5093693;28;20078;-66
2023/04/22 08:03:46;;;;;;;12.30;5.50;;;;;;;;;;5093548;28;20453;-65
2023/04/22 08:06:14;;;;;;;6.88;5.40;;;;;;;;;;5093647;28;20489;-64
2023/04/22 08:08:42;;;;;;;11.65;5.60;;;;;;;;;;5093456;28;20032;-65
2023/04/22 08:11:09;;;;;;;9.25;5.72;;;;;;;;;;5093739;28;20044;-64
2023/04/22 08:13:37;;;;;;;8.95;5.35;;;;;;;;;;5093445;28;20040;-64
2023/04/22 08:16:06;;;;;;;9.18;5.30;;;;;;;;;;5084688;28;20379;-64
2023/04/22 08:18:33;;;;;;;12.55;5.95;;;;;;;;;;5089065;28;20044;-64
2023/04/22 08:21:01;;;;;;;11.25;5.15;;;;;;;;;;5089572;28;20040;-64
2023/04/22 08:23:29;;;;;;;10.70;5.60;;;;;;;;;;5071748;28;20037;-64
2023/04/22 08:25:57;;;;;;;8.68;4.90;;;;;;;;;;5071918;28;20041;-62
2023/04/22 08:28:25;;;;;;;11.65;4.15;;;;;;;;;;5071486;28;20047;-64
2023/04/22 08:30:52;;;;;;;6.38;4.32;;;;;;;;;;5093483;28;20044;-64
2023/04/22 08:33:21;;;;;;;7.35;4.25;;;;;;;;;;5093249;28;20379;-64
2023/04/22 08:35:48;;;;;;;8.52;4.65;;;;;;;;;;5091888;28;20043;-64
2023/04/22 08:38:16;;;;;;;8.63;4.40;;;;;;;;;;5085006;28;20085;-63
2023/04/22 08:40:43;;;;;;;9.23;4.30;;;;;;;;;;5073691;28;20048;-65
2023/04/22 08:43:11;;;;;;;9.18;4.00;;;;;;;;;;5072520;28;20549;-63
2023/04/22 08:45:39;;;;;;;7.55;4.22;;;;;;;;;;5072204;28;20076;-64
2023/04/22 08:48:10;;;;;;;10.38;4.88;;;;;;;;;;5071935;28;20076;-63
2023/04/22 08:50:40;;;;;;;7.63;4.82;;;;;;;;;;5064848;28;20105;-64
2023/04/22 08:53:08;;;;;;;10.23;4.68;;;;;;;;;;5087174;28;20474;-63
2023/04/22 08:55:36;;;;;;;9.63;4.50;;;;;;;;;;5092648;28;20044;-64
2023/04/22 08:58:04;;;;;;;8.90;4.68;;;;;;;;;;5092684;28;20058;-63
2023/04/22 09:00:33;;;;;;;11.50;5.32;;;;;;;;;;5092646;28;20051;-65
2023/04/22 09:03:02;;;;;;;15.00;5.22;;;;;;;;;;5092112;28;20044;-64
2023/04/22 09:05:32;;;;;;;8.60;4.65;;;;;;;;;;5093262;28;20402;-63
2023/04/22 09:08:00;;;;;;;11.05;4.63;;;;;;;;;;5074769;28;20052;-64
2023/04/22 09:10:29;;;;;;;8.88;4.65;;;;;;;;;;5077684;28;20433;-64
2023/04/22 09:12:58;;;;;;;15.65;8.70;;;;;;;;;;5092558;28;20070;-65
2023/04/22 09:15:26;;;;;;;9.05;4.80;;;;;;;;;;5074755;28;20104;-64
2023/04/22 09:17:54;;;;;;;10.02;5.22;;;;;;;;;;5089494;28;20570;-64
2023/04/22 09:20:25;;;;;;;12.48;5.25;;;;;;;;;;5077576;28;20037;-65
2023/04/22 09:22:53;;;;;;;10.65;4.88;;;;;;;;;;5077536;28;20036;-65
2023/04/22 09:25:25;;;;;;;10.40;4.60;;;;;;;;;;5092329;28;20070;-65
2023/04/22 09:27:54;;;;;;;9.50;4.00;;;;;;;;;;5074248;28;20539;-65
2023/04/22 09:30:29;;;;;;;8.40;4.00;;;;;;;;;;5092420;28;20040;-65
2023/04/22 09:32:57;;;;;;;11.00;4.90;;;;;;;;;;5074456;28;20463;-64
2023/04/22 09:35:32;;;;;;;9.57;4.60;;;;;;;;;;5084358;28;20063;-66
2023/04/22 09:38:00;;;;;;;15.52;5.40;;;;;;;;;;5070243;28;20032;-65
2023/04/22 09:40:28;;;;;;;12.70;5.07;;;;;;;;;;5074166;28;20029;-65
2023/04/22 09:42:57;;;;;;;8.38;5.28;;;;;;;;;;5075733;28;20044;-66
2023/04/22 09:45:32;;;;;;;12.10;5.80;;;;;;;;;;5085957;28;20079;-65
2023/04/22 09:47:59;;;;;;;;;;;;;;;;;;5086582;28;20051;-64
2023/04/22 09:50:28;;;;;;;13.02;6.70;;;;;;;;;;5094427;28;19920;-64
2023/04/22 09:52:56;;;;;;;12.20;4.60;;;;;;;;;;5093812;28;20044;-65
2023/04/22 09:55:25;;;;;;;10.27;4.28;;;;;;;;;;5076551;28;20319;-64
2023/04/22 09:57:54;;;;;;;10.48;3.80;;;;;;;;;;5079197;28;20163;-64
2023/04/22 10:00:23;;;;;;;10.30;4.28;;;;;;;;;;5078314;28;20041;-65
2023/04/22 10:02:50;;;;;;;9.25;4.43;;;;;;;;;;5075575;28;20039;-64
2023/04/22 10:05:18;;;;;;;10.02;5.63;;;;;;;;;;5075559;28;20474;-64
2023/04/22 10:07:46;;;;;;;10.80;4.25;;;;;;;;;;5075601;28;20040;-65
2023/04/22 10:10:13;;;;;;;11.23;4.13;;;;;;;;;;5081867;28;20325;-65
2023/04/22 10:12:41;;;;;;;12.73;4.47;;;;;;;;;;5094682;28;20139;-64
2023/04/22 10:15:08;;;;;;;12.60;5.47;;;;;;;;;;5095692;28;20153;-66
2023/04/22 10:17:37;;;;;;;10.95;5.57;;;;;;;;;;5095761;28;20040;-63
2023/04/22 10:20:13;;;;;;;9.35;4.50;;;;;;;;;;5095605;28;20044;-64
2023/04/22 10:22:42;;;;;;;10.57;4.57;;;;;;;;;;5081507;28;20036;-64
2023/04/22 10:25:24;;;;;;;7.03;3.90;;;;;;;;;;5078564;28;20040;-65
2023/04/22 10:27:54;;;;;;;12.93;7.00;;;;;;;;;;5095639;28;20106;-65
2023/04/22 10:30:32;;;;;;;11.20;5.32;;;;;;;;;;5095856;28;20040;-64
2023/04/22 10:33:18;;;;;;;15.95;7.57;;;;;;;;;;5095616;28;20117;-64
2023/04/22 10:36:06;;;;;;;15.77;4.60;;;;;;;;;;5095310;28;20549;-64
2023/04/22 10:38:38;;;;;;;11.15;5.45;;;;;;;;;;5095659;28;20094;-64
2023/04/22 10:41:06;;;;;;;17.60;6.75;;;;;;;;;;5081845;28;20502;-64
2023/04/22 10:43:47;;;;;;;10.25;5.05;;;;;;;;;;5081246;28;20068;-64
2023/04/22 10:46:36;;;;;;;13.10;3.53;;;;;;;;;;5091052;28;20108;-65
2023/04/22 10:49:11;;;;;;;9.57;3.80;;;;;;;;;;5068370;28;20036;-65
2023/04/22 10:51:40;;;;;;;8.65;4.07;;;;;;;;;;5078535;28;20048;-64
2023/04/22 10:54:07;;;;;;;9.73;3.70;;;;;;;;;;5077289;28;20374;-65
2023/04/22 10:56:55;;;;;;;10.18;4.22;;;;;;;;;;5073983;28;20068;-64
2023/04/22 10:59:25;;;;;;;10.15;3.80;;;;;;;;;;5077593;28;20079;-64
2023/04/22 11:01:52;;;;;;;10.77;3.65;;;;;;;;;;5077899;28;20044;-65
2023/04/22 11:04:21;;;;;;;8.48;3.63;;;;;;;;;;5092636;28;20110;-65
2023/04/22 11:07:08;;;;;;;8.45;3.42;;;;;;;;;;5082260;28;20032;-65
2023/04/22 11:09:39;;;;;;;10.65;3.83;;;;;;;;;;5074335;28;20047;-64
2023/04/22 11:12:26;;;;;;;6.50;3.58;;;;;;;;;;5085478;28;20052;-65
2023/04/22 11:14:53;;;;;;;10.38;3.90;;;;;;;;;;5084713;28;20056;-65
2023/04/22 11:17:21;;;;;;;10.43;3.63;;;;;;;;;;5074240;28;20036;-64
2023/04/22 11:19:54;;;;;;;10.18;3.53;;;;;;;;;;5073766;28;20074;-64
2023/04/22 11:22:23;;;;;;;8.73;3.38;;;;;;;;;;5074025;28;20040;-64
2023/04/22 11:24:54;;;;;;;13.38;3.60;;;;;;;;;;5076158;28;20044;-64
2023/04/22 11:27:25;;;;;;;9.38;4.25;;;;;;;;;;5094464;28;20055;-64
2023/04/22 11:30:08;;;;;;;7.28;4.05;;;;;;;;;;5094390;28;20032;-65
2023/04/22 11:32:37;;;;;;;8.93;4.13;;;;;;;;;;5089896;28;20075;-64
2023/04/22 11:35:08;;;;;;;13.38;4.78;;;;;;;;;;5078665;28;20032;-64
2023/04/22 11:37:39;;;;;;;14.63;4.85;;;;;;;;;;5075281;28;20049;-64
2023/04/22 11:40:09;;;;;;;8.20;4.00;;;;;;;;;;5085420;28;20043;-65
2023/04/22 11:42:57;;;;;;;5.28;3.47;;;;;;;;;;5072052;28;20044;-65
2023/04/22 11:45:25;;;;;;;8.65;3.60;;;;;;;;;;5072419;28;20450;-64
2023/04/22 11:47:53;;;;;;;11.95;3.35;;;;;;;;;;5077331;28;20040;-64
2023/04/22 11:50:22;;;;;;;12.38;4.43;;;;;;;;;;5085753;28;20183;-64
2023/04/22 11:52:51;;;;;;;11.05;3.92;;;;;;;;;;5087880;28;20055;-64
2023/04/22 11:55:26;;;;;;;7.25;3.80;;;;;;;;;;5093531;28;20064;-64
2023/04/22 11:58:09;;;;;;;9.52;4.10;;;;;;;;;;5084956;28;20059;-64
2023/04/22 12:00:41;;;;;;;9.77;3.83;;;;;;;;;;5065531;28;20044;-63
2023/04/22 12:03:13;;;;;;;9.25;3.55;;;;;;;;;;5071791;28;20498;-63
2023/04/22 12:05:46;;;;;;;8.88;4.03;;;;;;;;;;5072943;28;20036;-63
2023/04/22 12:08:15;;;;;;;10.00;4.28;;;;;;;;;;5079870;28;20036;-63
2023/04/22 12:10:46;;;;;;;10.93;4.25;;;;;;;;;;5093244;28;20040;-64
2023/04/22 12:13:20;;;;;;;12.50;6.60;;;;;;;;;;5089577;28;20134;-64
2023/04/22 12:15:48;;;;;;;;;;;;;;;;;;5072680;28;20044;-64
2023/04/22 12:18:15;;;;;;;7.70;3.30;;;;;;;;;;5074609;28;19944;-64
2023/04/22 12:20:43;;;;;;;8.38;3.40;;;;;;;;;;5074809;28;20435;-64
2023/04/22 12:23:14;;;;;;;10.65;3.80;;;;;;;;;;5079603;28;20040;-64
2023/04/22 12:25:42;;;;;;;11.02;4.10;;;;;;;;;;5074929;28;20371;-64
2023/04/22 12:28:10;;;;;;;8.48;3.83;;;;;;;;;;5091520;28;20113;-64
2023/04/22 12:30:38;;;;;;;8.38;3.67;;;;;;;;;;5093011;28;20036;-65
2023/04/22 12:33:09;;;;;;;6.80;3.42;;;;;;;;;;5093294;28;20123;-65
2023/04/22 12:35:41;;;;;;;8.40;3.42;;;;;;;;;;5074717;28;20529;-65
2023/04/22 12:38:09;;;;;;;11.40;3.72;;;;;;;;;;5093050;28;20472;-66
2023/04/22 12:40:36;;;;;;;13.02;4.05;;;;;;;;;;5074675;28;20505;-65
2023/04/22 12:43:07;;;;;;;7.15;3.45;;;;;;;;;;5092784;28;20055;-65
2023/04/22 12:45:35;;;;;;;8.38;4.13;;;;;;;;;;5074497;28;20485;-65
2023/04/22 12:48:03;;;;;;;10.23;3.85;;;;;;;;;;5092861;28;20094;-65
2023/04/22 12:50:30;;;;;;;10.27;4.25;;;;;;;;;;5078677;28;20040;-65
2023/04/22 12:52:58;;;;;;;9.25;3.95;;;;;;;;;;5079298;28;20040;-65
2023/04/22 12:55:26;;;;;;;8.32;3.47;;;;;;;;;;5092667;28;20514;-64
2023/04/22 12:58:16;;;;;;;10.10;3.42;;;;;;;;;;5092276;28;20048;-65
2023/04/22 13:00:58;;;;;;;7.38;3.60;;;;;;;;;;5090732;28;20056;-64
2023/04/22 13:03:25;;;;;;;9.43;4.10;;;;;;;;;;5092422;28;20094;-64
2023/04/22 13:05:56;;;;;;;12.55;5.45;;;;;;;;;;5092523;28;20067;-64
2023/04/22 13:08:24;;;;;;;8.23;4.30;;;;;;;;;;5092305;28;20046;-63
2023/04/22 13:10:52;;;;;;;12.75;4.28;;;;;;;;;;5089009;28;20032;-62
2023/04/22 13:13:19;;;;;;;7.13;4.10;;;;;;;;;;5092040;28;20486;-64
2023/04/22 13:15:52;;;;;;;11.48;5.88;;;;;;;;;;5072806;28;20051;-63
2023/04/22 13:18:21;;;;;;;8.18;3.47;;;;;;;;;;5075563;28;20062;-67
2023/04/22 13:20:50;;;;;;;10.95;3.70;;;;;;;;;;5092704;28;20054;-69
2023/04/22 13:23:20;;;;;;;10.18;4.10;;;;;;;;;;5089171;28;20052;-69
2023/04/22 13:25:52;;;;;;;9.63;3.80;;;;;;;;;;5079611;28;20048;-68
2023/04/22 13:28:20;;;;;;;10.30;3.67;;;;;;;;;;5081987;28;20067;-68
2023/04/22 13:30:47;;;;;;;10.32;4.03;;;;;;;;;;5071418;28;20524;-68
2023/04/22 13:33:14;;;;;;;6.38;3.45;;;;;;;;;;5071362;28;20037;-68
2023/04/22 13:35:45;;;;;;;11.45;5.07;;;;;;;;;;5072399;28;20086;-69
2023/04/22 13:38:14;;;;;;;9.27;3.65;;;;;;;;;;5087852;28;20136;-69
2023/04/22 13:40:42;;;;;;;6.53;3.83;;;;;;;;;;5072218;28;20359;-69
2023/04/22 13:43:09;;;;;;;10.30;4.38;;;;;;;;;;5072446;28;20421;-68
2023/04/22 13:45:37;;;;;;;10.68;4.15;;;;;;;;;;5072481;28;20381;-68
2023/04/22 13:48:05;;;;;;;12.73;4.35;;;;;;;;;;5087808;28;20040;-68
2023/04/22 13:50:33;;;;;;;10.93;4.15;;;;;;;;;;5072401;28;20579;-68
2023/04/22 13:53:02;;;;;;;7.28;4.47;;;;;;;;;;5072288;28;20049;-68
2023/04/22 13:55:30;;;;;;;10.63;4.07;;;;;;;;;;5072227;28;20047;-68
2023/04/22 13:57:57;;;;;;;7.45;4.05;;;;;;;;;;5071960;28;20115;-69
2023/04/22 14:00:25;;;;;;;10.02;4.60;;;;;;;;;;5072093;28;20037;-68
2023/04/22 14:02:53;;;;;;;10.15;4.05;;;;;;;;;;5072397;28;20051;-68
2023/04/22 14:05:29;;;;;;;5.55;3.53;;;;;;;;;;5072234;28;20135;-68
2023/04/22 14:07:59;;;;;;;13.27;5.10;;;;;;;;;;5072135;28;20047;-69
2023/04/22 14:10:27;;;;;;;15.10;5.68;;;;;;;;;;5087693;28;20045;-67
2023/04/22 14:12:55;;;;;;;13.15;4.53;;;;;;;;;;5072122;28;20044;-68
2023/04/22 14:15:23;;;;;;;10.45;4.80;;;;;;;;;;5072056;28;20090;-67
2023/04/22 14:17:51;;;;;;;7.70;3.70;;;;;;;;;;5071907;28;20040;-67
2023/04/22 14:20:18;;;;;;;9.63;4.38;;;;;;;;;;5071995;28;20051;-67
2023/04/22 14:22:46;;;;;;;12.63;4.43;;;;;;;;;;5071865;28;20040;-67
2023/04/22 14:25:13;;;;;;;7.43;3.95;;;;;;;;;;5072250;28;20044;-67
2023/04/22 14:27:41;;;;;;;8.68;4.07;;;;;;;;;;5075534;28;20449;-67
2023/04/22 14:30:22;;;;;;;10.95;3.70;;;;;;;;;;5061061;28;20068;-66
2023/04/22 14:32:50;;;;;;;6.93;3.35;;;;;;;;;;5091018;28;20048;-67
2023/04/22 14:35:17;;;;;;;12.10;3.80;;;;;;;;;;5075779;28;20037;-67
2023/04/22 14:37:45;;;;;;;9.63;3.80;;;;;;;;;;5075507;28;20049;-67
2023/04/22 14:40:13;;;;;;;7.25;3.70;;;;;;;;;;5075524;28;20033;-68
2023/04/22 14:42:40;;;;;;;9.20;3.78;;;;;;;;;;5075619;28;20045;-67
2023/04/22 14:45:08;;;;;;;9.45;3.88;;;;;;;;;;5075654;28;20037;-67
2023/04/22 14:47:36;;;;;;;10.70;3.50;;;;;;;;;;5075188;28;20068;-67